Time;durP1;ratioP1;P1;durP2;ratioP2;P2;SDS_P1;SDS_P2;PMS_P1;PMS_P2;Temp;Humidity;BMP_temperature;BMP_pressure;BME280_temperature;BME280_humidity;BME280_pressure;Samples;Min_cycle;Max_cycle;Signal;HPM_P1;HPM_P2
2023/06/23 00:01:24;;;;;;;13.80;12.30;;;;;;;22.24;95.37;98666.77;109689;1250;59189;-77
2023/06/23 00:03:54;;;;;;;13.30;12.00;;;;;;;22.21;95.55;98662.96;109413;1251;59243;-77
2023/06/23 00:06:20;;;;;;;;;;;;;;;22.18;95.60;98660.23;109703;1249;59140;-78
2023/06/23 00:08:47;;;;;;;13.70;12.30;;;;;;;22.13;96.05;98658.47;109685;1250;59121;-77
2023/06/23 00:11:14;;;;;;;13.70;12.40;;;;;;;22.09;95.99;98661.39;109708;1250;59031;-77
2023/06/23 00:13:40;;;;;;;12.10;11.00;;;;;;;22.08;96.13;98666.99;109697;1250;59105;-77
2023/06/23 00:16:07;;;;;;;12.70;11.60;;;;;;;22.06;96.24;98667.59;109700;1250;66181;-77
2023/06/23 00:18:41;;;;;;;13.30;12.00;;;;;;;22.03;96.41;98672.60;109438;1251;60375;-76
2023/06/23 00:21:09;;;;;;;13.20;12.00;;;;;;;22.01;96.82;98675.23;109698;1251;62503;-77
2023/06/23 00:23:36;;;;;;;13.10;11.90;;;;;;;22.00;97.26;98671.41;109687;1250;59098;-77
2023/06/23 00:26:07;;;;;;;13.10;11.80;;;;;;;21.97;97.51;98669.70;109688;1249;59202;-77
2023/06/23 00:28:34;;;;;;;12.90;11.80;;;;;;;21.95;97.96;98669.16;109663;1251;65852;-77
2023/06/23 00:31:01;;;;;;;12.60;11.40;;;;;;;21.91;98.41;98664.14;109722;1250;59298;-77
2023/06/23 00:33:28;;;;;;;14.10;12.70;;;;;;;21.88;99.06;98660.36;109681;1251;64930;-77
2023/06/23 00:35:55;;;;;;;14.20;13.00;;;;;;;21.86;99.34;98663.98;109649;1251;59002;-77
2023/06/23 00:38:21;;;;;;;14.10;12.70;;;;;;;21.85;99.67;98659.82;109704;1250;59112;-77
2023/06/23 00:40:48;;;;;;;13.90;12.70;;;;;;;21.83;99.93;98654.45;109680;1251;74755;-76
2023/06/23 00:43:16;;;;;;;14.00;12.80;;;;;;;21.80;100.00;98648.80;109661;1249;58981;-77
2023/06/23 00:45:43;;;;;;;13.80;12.50;;;;;;;21.78;100.00;98643.10;109674;1250;64058;-77
2023/06/23 00:48:14;;;;;;;14.10;12.70;;;;;;;21.76;100.00;98641.69;109699;1250;59247;-77
2023/06/23 00:50:41;;;;;;;13.50;12.20;;;;;;;21.75;100.00;98644.30;109716;1251;59070;-77
2023/06/23 00:53:08;;;;;;;14.20;12.80;;;;;;;21.74;100.00;98634.38;109635;1251;64507;-77
2023/06/23 00:55:37;;;;;;;13.90;12.60;;;;;;;21.72;100.00;98631.35;109703;1250;60206;-76
2023/06/23 00:58:08;;;;;;;14.50;13.20;;;;;;;21.69;100.00;98626.02;109650;1251;65281;-76
2023/06/23 01:00:35;;;;;;;14.20;12.90;;;;;;;21.67;100.00;98619.25;109672;1250;58930;-78
2023/06/23 01:03:03;;;;;;;13.40;12.20;;;;;;;21.66;100.00;98619.73;109684;1250;59360;-76
2023/06/23 01:05:35;;;;;;;14.70;13.20;;;;;;;21.64;100.00;98621.07;109661;1251;65784;-76
2023/06/23 01:08:25;;;;;;;14.20;13.00;;;;;;;21.61;100.00;98618.35;109702;1251;60166;-77
2023/06/23 01:11:01;;;;;;;14.70;13.30;;;;;;;21.56;100.00;98612.39;109687;1250;72762;-76
2023/06/23 01:13:37;;;;;;;14.40;13.20;;;;;;;21.54;100.00;98608.85;109232;1250;157640;-77
2023/06/23 01:16:18;;;;;;;15.10;13.70;;;;;;;21.52;100.00;98613.61;109694;1250;58926;-76
2023/06/23 01:18:52;;;;;;;14.00;12.70;;;;;;;21.50;100.00;98618.34;109508;1251;64666;-77
2023/06/23 01:21:38;;;;;;;14.50;13.30;;;;;;;21.47;100.00;98616.77;109688;1250;59033;-77
2023/06/23 01:24:21;;;;;;;14.50;13.20;;;;;;;21.43;100.00;98604.52;109657;1251;62519;-77
2023/06/23 01:27:11;;;;;;;14.60;13.40;;;;;;;21.42;100.00;98595.83;109656;1251;59303;-77
2023/06/23 01:29:41;;;;;;;14.10;12.90;;;;;;;21.40;100.00;98591.41;109458;1251;59281;-77
2023/06/23 01:32:14;;;;;;;13.60;12.40;;;;;;;21.37;100.00;98589.39;109682;1251;66043;-77
2023/06/23 01:34:45;;;;;;;14.80;13.50;;;;;;;21.33;100.00;98587.77;109695;1251;61224;-78
2023/06/23 01:37:18;;;;;;;14.00;12.70;;;;;;;21.32;100.00;98588.58;109674;1251;63811;-78
2023/06/23 01:39:50;;;;;;;15.50;14.10;;;;;;;21.29;100.00;98589.06;109650;1253;59139;-77
2023/06/23 01:42:19;;;;;;;15.70;14.20;;;;;;;21.28;100.00;98585.80;109694;1251;59307;-78
2023/06/23 01:44:49;;;;;;;14.70;13.20;;;;;;;21.26;100.00;98572.21;109675;1251;66048;-77
2023/06/23 01:47:26;;;;;;;14.30;12.70;;;;;;;21.23;100.00;98562.98;109690;1251;60130;-77
2023/06/23 01:49:58;;;;;;;14.40;13.30;;;;;;;21.20;100.00;98558.10;109677;1251;62936;-77
2023/06/23 01:52:27;;;;;;;14.60;13.30;;;;;;;21.18;100.00;98553.27;109675;1251;59043;-77
2023/06/23 01:54:55;;;;;;;14.10;12.80;;;;;;;21.17;100.00;98548.88;109558;1250;59004;-77
2023/06/23 01:57:25;;;;;;;16.00;12.80;;;;;;;21.16;100.00;98545.80;109660;1250;66039;-77
2023/06/23 01:59:52;;;;;;;15.30;13.80;;;;;;;21.14;100.00;98541.48;109706;1251;59945;-77
2023/06/23 02:02:23;;;;;;;16.90;15.40;;;;;;;21.12;100.00;98541.91;109511;1251;63903;-77
2023/06/23 02:04:50;;;;;;;17.70;15.90;;;;;;;21.10;100.00;98544.31;109423;1251;59071;-78
2023/06/23 02:07:19;;;;;;;15.30;14.00;;;;;;;21.09;100.00;98543.38;109655;1251;58919;-77
2023/06/23 02:09:46;;;;;;;16.00;14.40;;;;;;;21.07;100.00;98540.69;109684;1250;65861;-77
2023/06/23 02:12:15;;;;;;;16.60;14.90;;;;;;;21.04;100.00;98534.80;109506;1251;60372;-75
2023/06/23 02:14:43;;;;;;;15.70;14.10;;;;;;;21.04;100.00;98530.59;109733;1250;63329;-77
2023/06/23 02:17:11;;;;;;;14.40;13.20;;;;;;;21.03;100.00;98527.02;109681;1250;59239;-77
2023/06/23 02:19:39;;;;;;;15.20;13.60;;;;;;;21.01;100.00;98536.84;109708;1251;59375;-78
2023/06/23 02:22:17;;;;;;;15.50;13.90;;;;;;;20.99;100.00;98548.86;109709;1251;66030;-77
2023/06/23 02:24:46;;;;;;;15.00;13.50;;;;;;;20.96;100.00;98556.21;109712;1251;59885;-77
2023/06/23 02:27:12;;;;;;;16.40;14.90;;;;;;;20.93;100.00;98559.14;109498;1251;62857;-77
2023/06/23 02:29:41;;;;;;;15.60;14.20;;;;;;;20.89;100.00;98572.69;109652;1251;59013;-77
2023/06/23 02:32:08;;;;;;;15.60;14.00;;;;;;;20.85;100.00;98583.04;109697;1251;59075;-77
2023/06/23 02:34:35;;;;;;;13.90;12.70;;;;;;;20.81;100.00;98583.77;109679;1250;65697;-77
2023/06/23 02:37:05;;;;;;;15.90;14.50;;;;;;;20.80;100.00;98581.70;109710;1251;60316;-77
2023/06/23 02:39:37;;;;;;;15.70;14.30;;;;;;;20.80;100.00;98589.55;109693;1250;64640;-77
2023/06/23 02:42:05;;;;;;;15.90;14.40;;;;;;;20.80;100.00;98594.39;109662;1251;59067;-76
2023/06/23 02:44:39;;;;;;;15.00;13.40;;;;;;;20.81;100.00;98598.58;109391;1251;58986;-78
2023/06/23 02:47:10;;;;;;;14.80;13.40;;;;;;;20.82;100.00;98602.43;109701;1251;65709;-77
2023/06/23 02:49:37;;;;;;;15.60;14.00;;;;;;;20.84;100.00;98602.73;109704;1250;59004;-78
2023/06/23 02:52:08;;;;;;;16.40;14.90;;;;;;;20.88;100.00;98594.42;109395;1251;64031;-77
2023/06/23 02:54:40;;;;;;;15.50;14.00;;;;;;;20.94;100.00;98591.20;109656;1251;58945;-77
2023/06/23 02:57:12;;;;;;;16.00;14.40;;;;;;;20.99;100.00;98586.90;109692;1253;58924;-76
2023/06/23 02:59:41;;;;;;;14.80;13.60;;;;;;;21.05;100.00;98581.88;109707;1251;66029;-77
2023/06/23 03:02:11;;;;;;;15.70;14.20;;;;;;;21.12;100.00;98575.88;109683;1251;58983;-77
2023/06/23 03:04:39;;;;;;;16.90;15.40;;;;;;;21.18;100.00;98575.08;109680;1251;65245;-76
2023/06/23 03:07:05;;;;;;;16.30;14.80;;;;;;;21.27;100.00;98578.23;109660;1250;59090;-77
2023/06/23 03:09:33;;;;;;;17.30;14.90;;;;;;;21.35;100.00;98584.34;109687;1251;59004;-77
2023/06/23 03:12:00;;;;;;;16.60;15.00;;;;;;;21.41;100.00;98591.23;109709;1251;64827;-77
2023/06/23 03:14:27;;;;;;;17.80;15.80;;;;;;;21.49;100.00;98597.58;109702;1251;59257;-77
2023/06/23 03:17:08;;;;;;;17.30;15.70;;;;;;;21.55;100.00;98606.03;109704;1251;65363;-76
2023/06/23 03:20:00;;;;;;;18.30;16.70;;;;;;;21.63;100.00;98619.23;109653;1251;59012;-77
2023/06/23 03:22:33;;;;;;;17.40;15.70;;;;;;;21.72;100.00;98624.80;109722;1251;58927;-76
2023/06/23 03:25:05;;;;;;;19.20;17.50;;;;;;;21.77;100.00;98623.47;109674;1251;64770;-77
2023/06/23 03:27:33;;;;;;;19.00;17.30;;;;;;;21.83;100.00;98625.48;109170;1251;59179;-76
2023/06/23 03:30:02;;;;;;;20.10;17.90;;;;;;;21.89;100.00;98625.52;109651;1249;64061;-77
2023/06/23 03:32:37;;;;;;;18.00;16.40;;;;;;;21.93;100.00;98622.42;109672;1250;58916;-76
2023/06/23 03:35:07;;;;;;;17.60;15.90;;;;;;;21.99;100.00;98620.31;109665;1251;58890;-78
2023/06/23 03:37:39;;;;;;;18.20;16.60;;;;;;;22.07;100.00;98619.75;109715;1251;66119;-77
2023/06/23 03:40:11;;;;;;;17.60;15.90;;;;;;;22.15;100.00;98614.77;109682;1251;60120;-78
2023/06/23 03:42:44;;;;;;;16.90;15.40;;;;;;;22.24;100.00;98609.05;109679;1253;64099;-78
2023/06/23 03:45:14;;;;;;;16.80;15.30;;;;;;;22.32;100.00;98602.41;109679;1251;58971;-78
2023/06/23 03:47:43;;;;;;;16.30;14.70;;;;;;;22.40;100.00;98600.21;109697;1251;58908;-77
2023/06/23 03:50:14;;;;;;;17.60;15.90;;;;;;;22.47;100.00;98600.57;109705;1251;66148;-77
2023/06/23 03:52:42;;;;;;;17.30;15.80;;;;;;;22.56;100.00;98602.19;109719;1250;60271;-78
2023/06/23 03:55:10;;;;;;;17.50;15.90;;;;;;;22.60;100.00;98598.07;109671;1250;64107;-78
2023/06/23 03:57:39;;;;;;;15.60;14.10;;;;;;;22.66;100.00;98593.16;109662;1251;59331;-78
2023/06/23 04:00:07;;;;;;;15.70;14.20;;;;;;;22.69;100.00;98588.06;109537;1250;59194;-78
2023/06/23 04:02:35;;;;;;;16.50;14.90;;;;;;;22.70;100.00;98585.45;109667;1251;66104;-78
2023/06/23 04:05:04;;;;;;;15.70;14.30;;;;;;;22.70;100.00;98575.33;109387;1251;59086;-77
2023/06/23 04:07:33;;;;;;;15.40;14.10;;;;;;;22.67;100.00;98576.38;109698;1250;63893;-78
2023/06/23 04:10:04;;;;;;;16.50;14.80;;;;;;;22.68;100.00;98586.08;109673;1251;59252;-78
2023/06/23 04:12:33;;;;;;;16.10;14.30;;;;;;;22.70;100.00;98590.34;109414;1251;59017;-78
2023/06/23 04:15:03;;;;;;;14.90;13.50;;;;;;;22.73;100.00;98586.30;109687;1250;65788;-78
2023/06/23 04:17:33;;;;;;;17.20;13.90;;;;;;;22.77;100.00;98570.42;109713;1251;59909;-78
2023/06/23 04:20:03;;;;;;;15.90;14.50;;;;;;;22.83;100.00;98554.70;109676;1250;62597;-78
2023/06/23 04:22:30;;;;;;;14.80;13.30;;;;;;;22.90;100.00;98555.91;109657;1250;59044;-78
2023/06/23 04:25:00;;;;;;;16.00;14.50;;;;;;;23.05;100.00;98571.14;109680;1250;59194;-78
2023/06/23 04:27:29;;;;;;;15.50;14.00;;;;;;;23.23;100.00;98582.08;109666;1251;66061;-78
2023/06/23 04:29:57;;;;;;;15.30;13.40;;;;;;;23.36;100.00;98577.86;109638;1251;69737;-77
2023/06/23 04:32:24;;;;;;;14.70;13.30;;;;;;;23.47;100.00;98563.40;109652;1249;62521;-76
2023/06/23 04:34:51;;;;;;;15.20;13.80;;;;;;;23.56;100.00;98553.92;109666;1251;59330;-76
2023/06/23 04:37:31;;;;;;;15.40;13.90;;;;;;;23.61;99.97;98559.08;109695;1251;58961;-77
2023/06/23 04:40:06;;;;;;;14.90;13.40;;;;;;;23.65;99.43;98555.17;109678;1250;64499;-75
2023/06/23 04:43:09;;;;;;;15.00;13.60;;;;;;;23.63;99.27;98537.23;109301;1254;59060;-76
2023/06/23 04:45:41;;;;;;;15.20;14.00;;;;;;;23.65;98.87;98534.78;109318;1254;64045;-79
2023/06/23 04:48:11;;;;;;;15.10;13.50;;;;;;;23.76;97.96;98552.52;109190;1257;59122;-78
2023/06/23 04:50:39;;;;;;;15.50;14.10;;;;;;;23.94;97.08;98558.38;109311;1254;59097;-77
2023/06/23 04:53:13;;;;;;;15.20;13.90;;;;;;;24.01;96.58;98557.38;109353;1254;66111;-77
2023/06/23 04:55:44;;;;;;;16.10;13.60;;;;;;;24.06;95.31;98561.69;109330;1254;60291;-77
2023/06/23 04:58:13;;;;;;;14.40;13.10;;;;;;;24.33;94.09;98560.50;109341;1254;62821;-78
2023/06/23 05:00:41;;;;;;;14.60;13.20;;;;;;;24.83;91.87;98559.85;109315;1254;59013;-78
2023/06/23 05:03:09;;;;;;;15.80;14.00;;;;;;;25.32;89.76;98554.86;109130;1254;58987;-78
2023/06/23 05:05:37;;;;;;;15.20;13.80;;;;;;;25.56;88.47;98545.39;109335;1254;65776;-77
2023/06/23 05:08:04;;;;;;;14.80;13.50;;;;;;;25.63;87.59;98544.98;109328;1254;59195;-77
2023/06/23 05:10:33;;;;;;;15.30;13.80;;;;;;;25.68;86.93;98549.54;109325;1254;63791;-78
2023/06/23 05:13:03;;;;;;;15.00;13.40;;;;;;;25.74;86.19;98551.21;109424;1251;58988;-77
2023/06/23 05:15:29;;;;;;;15.70;14.30;;;;;;;25.74;85.49;98544.16;109711;1249;58987;-76
2023/06/23 05:17:59;;;;;;;15.10;13.60;;;;;;;25.65;84.90;98539.13;109702;1251;65761;-78
2023/06/23 05:20:27;;;;;;;15.80;14.20;;;;;;;25.51;85.12;98541.14;109661;1250;59733;-78
2023/06/23 05:22:57;;;;;;;15.10;13.70;;;;;;;25.41;85.37;98544.52;109687;1251;73671;-76
2023/06/23 05:25:29;;;;;;;15.20;13.70;;;;;;;25.34;85.51;98548.52;109666;1250;58930;-77
2023/06/23 05:28:00;;;;;;;17.40;14.20;;;;;;;25.21;86.02;98544.30;109693;1250;59001;-76
2023/06/23 05:30:28;;;;;;;15.30;13.90;;;;;;;25.02;87.23;98542.98;109443;1250;65823;-77
2023/06/23 05:32:59;;;;;;;16.00;14.60;;;;;;;24.88;87.93;98551.40;109673;1249;59797;-77
2023/06/23 05:35:27;;;;;;;16.60;15.10;;;;;;;24.67;88.17;98563.83;109666;1250;64314;-77
2023/06/23 05:37:55;;;;;;;18.40;16.70;;;;;;;24.42;89.41;98628.27;109645;1251;58926;-77
2023/06/23 05:40:22;;;;;;;16.30;14.60;;;;;;;24.05;92.32;98722.93;109693;1249;58863;-77
2023/06/23 05:42:48;;;;;;;18.40;15.80;;;;;;;23.70;94.43;98712.86;109678;1251;66021;-78
2023/06/23 05:45:15;;;;;;;24.20;14.40;;;;;;;23.46;96.68;98677.34;109743;1250;59875;-78
2023/06/23 05:47:44;;;;;;;17.90;12.60;;;;;;;23.27;99.83;98673.60;109511;1250;62506;-77
2023/06/23 05:50:35;;;;;;;22.00;12.50;;;;;;;23.12;100.00;98670.80;109637;1250;59009;-77
2023/06/23 05:53:08;;;;;;;15.70;11.40;;;;;;;22.98;100.00;98646.11;109020;1259;59007;-78
2023/06/23 05:55:43;;;;;;;15.50;9.40;;;;;;;22.82;100.00;98647.14;109007;1259;65862;-77
2023/06/23 05:58:12;;;;;;;13.40;8.40;;;;;;;22.64;100.00;98646.41;108988;1259;59013;-77
2023/06/23 06:00:45;;;;;;;13.40;8.20;;;;;;;22.48;100.00;98665.47;108970;1259;63788;-78
2023/06/23 06:03:14;;;;;;;12.30;7.60;;;;;;;22.33;100.00;98663.45;108979;1259;59189;-78
2023/06/23 06:05:46;;;;;;;12.40;6.70;;;;;;;22.17;100.00;98669.33;108949;1258;59597;-76
2023/06/23 06:08:14;;;;;;;19.60;8.70;;;;;;;21.97;100.00;98665.36;108926;1259;66488;-76
2023/06/23 06:10:41;;;;;;;13.90;7.00;;;;;;;21.67;100.00;98661.27;108915;1258;59025;-77
2023/06/23 06:13:09;;;;;;;15.00;6.30;;;;;;;21.36;100.00;98666.00;108909;1258;63856;-77
2023/06/23 06:15:36;;;;;;;16.20;7.20;;;;;;;21.04;100.00;98673.23;108877;1258;59076;-77
2023/06/23 06:18:07;;;;;;;19.60;6.70;;;;;;;20.80;100.00;98662.27;108918;1258;59059;-77
2023/06/23 06:20:35;;;;;;;13.00;6.80;;;;;;;20.59;100.00;98654.73;108922;1260;66077;-77
2023/06/23 06:23:05;;;;;;;16.50;8.00;;;;;;;20.44;100.00;98649.55;108931;1259;59020;-77
2023/06/23 06:25:33;;;;;;;18.30;8.70;;;;;;;20.35;100.00;98647.85;108943;1259;63802;-77
2023/06/23 06:28:03;;;;;;;14.40;9.50;;;;;;;20.30;100.00;98642.29;108874;1259;59118;-77
2023/06/23 06:30:31;;;;;;;;;;;;;;;20.28;100.00;98633.83;109288;1251;58912;-78
2023/06/23 06:33:00;;;;;;;18.20;10.40;;;;;;;20.24;100.00;98630.09;109520;1251;64421;-77
2023/06/23 06:35:28;;;;;;;17.00;10.70;;;;;;;20.16;100.00;98633.94;109424;1251;60150;-77
2023/06/23 06:37:56;;;;;;;18.10;10.60;;;;;;;20.16;100.00;98630.93;109520;1251;64070;-76
2023/06/23 06:40:25;;;;;;;14.70;9.50;;;;;;;20.17;100.00;98622.27;109362;1251;59029;-77
2023/06/23 06:42:52;;;;;;;15.20;9.60;;;;;;;20.19;100.00;98614.68;109507;1251;59015;-77
2023/06/23 06:45:18;;;;;;;14.70;10.40;;;;;;;20.22;100.00;98608.42;109504;1251;66028;-76
2023/06/23 06:47:47;;;;;;;14.20;10.40;;;;;;;20.23;100.00;98606.02;109523;1251;59133;-77
2023/06/23 06:50:15;;;;;;;17.50;9.90;;;;;;;20.21;100.00;98599.70;109302;1251;64302;-76
2023/06/23 06:52:43;;;;;;;16.90;10.00;;;;;;;20.22;100.00;98610.98;109465;1251;59312;-77
2023/06/23 06:55:20;;;;;;;15.10;10.00;;;;;;;20.22;100.00;98607.46;109521;1251;58897;-77
2023/06/23 06:57:48;;;;;;;15.40;10.10;;;;;;;20.27;100.00;98596.96;109513;1251;66192;-77
2023/06/23 07:00:19;;;;;;;18.50;10.90;;;;;;;20.34;100.00;98586.86;109484;1251;59168;-77
2023/06/23 07:02:46;;;;;;;14.80;11.10;;;;;;;20.41;100.00;98581.32;109409;1251;63794;-76
2023/06/23 07:05:13;;;;;;;17.50;10.50;;;;;;;20.47;100.00;98585.31;109491;1251;58943;-76
2023/06/23 07:07:40;;;;;;;18.40;11.30;;;;;;;20.54;100.00;98591.79;109515;1251;59117;-76
2023/06/23 07:10:07;;;;;;;16.90;12.90;;;;;;;20.60;100.00;98590.78;109528;1251;59603;-76
2023/06/23 07:12:34;;;;;;;16.40;11.60;;;;;;;20.64;100.00;98595.94;109509;1251;60164;-77
2023/06/23 07:15:00;;;;;;;15.00;11.70;;;;;;;20.70;100.00;98596.69;109347;1251;63876;-77
2023/06/23 07:17:27;;;;;;;16.50;12.70;;;;;;;20.77;100.00;98597.13;109470;1251;58965;-76
2023/06/23 07:19:54;;;;;;;16.20;12.00;;;;;;;20.85;100.00;98599.98;109484;1251;59560;-76
2023/06/23 07:22:20;;;;;;;18.00;11.40;;;;;;;20.94;100.00;98596.79;109502;1251;66388;-76
2023/06/23 07:24:47;;;;;;;18.00;12.90;;;;;;;21.04;100.00;98592.86;109523;1251;58968;-76
2023/06/23 07:27:15;;;;;;;13.20;11.90;;;;;;;21.14;100.00;98583.45;109488;1251;58990;-76
2023/06/23 07:29:42;;;;;;;17.70;12.40;;;;;;;21.26;100.00;98574.89;109474;1251;58967;-76
2023/06/23 07:32:10;;;;;;;18.50;13.90;;;;;;;21.38;100.00;98565.42;109507;1251;59021;-76
2023/06/23 07:34:36;;;;;;;17.10;13.50;;;;;;;21.51;100.00;98567.50;109502;1251;66054;-77
2023/06/23 07:37:03;;;;;;;19.00;13.40;;;;;;;21.64;100.00;98569.85;109334;1251;59052;-77
2023/06/23 07:39:30;;;;;;;17.00;14.40;;;;;;;21.82;100.00;98570.79;109491;1251;63953;-77
2023/06/23 07:41:56;;;;;;;19.40;14.90;;;;;;;22.03;100.00;98573.15;109369;1251;59078;-77
2023/06/23 07:44:23;;;;;;;19.10;15.20;;;;;;;22.24;100.00;98577.52;109154;1251;59101;-77
2023/06/23 07:46:49;;;;;;;18.10;14.50;;;;;;;22.41;100.00;98586.98;109519;1251;59129;-77
2023/06/23 07:49:16;;;;;;;17.90;13.70;;;;;;;22.53;100.00;98591.66;109545;1251;58993;-77
2023/06/23 07:51:42;;;;;;;19.60;14.00;;;;;;;22.59;100.00;98599.80;109504;1251;59180;-78
2023/06/23 07:54:09;;;;;;;19.10;13.30;;;;;;;22.65;100.00;98599.33;109492;1251;58940;-76
2023/06/23 07:56:35;;;;;;;17.70;13.30;;;;;;;22.69;100.00;98604.06;109508;1251;58879;-77
2023/06/23 07:59:03;;;;;;;17.20;13.30;;;;;;;22.74;100.00;98610.41;109521;1251;64901;-76
2023/06/23 08:01:29;;;;;;;16.00;14.10;;;;;;;22.89;100.00;98614.42;109542;1251;59754;-76
2023/06/23 08:03:56;;;;;;;16.20;13.20;;;;;;;23.10;100.00;98624.64;109342;1251;59181;-77
2023/06/23 08:06:23;;;;;;;16.50;12.90;;;;;;;23.28;100.00;98637.64;109513;1251;58991;-77
2023/06/23 08:08:51;;;;;;;15.90;12.90;;;;;;;23.43;100.00;98645.58;109532;1251;58875;-78
2023/06/23 08:11:17;;;;;;;16.20;12.70;;;;;;;23.59;100.00;98657.86;109546;1251;64496;-77
2023/06/23 08:13:44;;;;;;;14.90;12.80;;;;;;;23.77;100.00;98670.20;109363;1251;59057;-78
2023/06/23 08:16:11;;;;;;;15.00;12.60;;;;;;;23.97;100.00;98674.58;109594;1251;63978;-78
2023/06/23 08:18:37;;;;;;;18.50;13.00;;;;;;;24.09;100.00;98678.70;109534;1251;59072;-78
2023/06/23 08:21:04;;;;;;;19.80;14.80;;;;;;;24.07;100.00;98678.21;109580;1251;59181;-76
2023/06/23 08:23:30;;;;;;;23.00;15.90;;;;;;;24.06;100.00;98673.40;109600;1251;64901;-76
2023/06/23 08:25:57;;;;;;;17.90;15.00;;;;;;;24.17;100.00;98669.51;109343;1251;59073;-76
2023/06/23 08:28:23;;;;;;;23.20;14.90;;;;;;;24.27;100.00;98671.50;109573;1251;59082;-76
2023/06/23 08:30:50;;;;;;;19.10;14.60;;;;;;;24.45;100.00;98671.55;109493;1251;59317;-77
2023/06/23 08:33:16;;;;;;;18.70;14.70;;;;;;;24.64;100.00;98673.73;109606;1251;58854;-77
2023/06/23 08:35:43;;;;;;;22.60;15.50;;;;;;;24.86;100.00;98671.20;109724;1251;64837;-76
2023/06/23 08:38:12;;;;;;;17.90;13.80;;;;;;;25.12;100.00;98670.86;109849;1255;60055;-77
2023/06/23 08:40:40;;;;;;;;;;;;;;;25.32;100.00;98666.75;109688;1251;62491;-76
2023/06/23 08:43:10;;;;;;;19.80;15.10;;;;;;;25.50;100.00;98671.16;109236;1253;59026;-73
2023/06/23 08:45:44;;;;;;;13.80;12.00;;;;;;;25.67;100.00;98679.04;109389;1253;58982;-72
2023/06/23 08:48:11;;;;;;;13.70;12.30;;;;;;;25.81;100.00;98677.73;109370;1254;65739;-72
2023/06/23 08:50:38;;;;;;;16.30;12.50;;;;;;;25.90;100.00;98674.31;109361;1253;59929;-73
2023/06/23 08:53:05;;;;;;;16.30;12.20;;;;;;;26.00;100.00;98667.88;109384;1253;64066;-73
2023/06/23 08:55:32;;;;;;;14.10;11.70;;;;;;;26.17;100.00;98665.19;109368;1253;59706;-73
2023/06/23 08:58:02;;;;;;;12.20;10.60;;;;;;;26.36;100.00;98659.02;109367;1253;58873;-73
2023/06/23 09:00:29;;;;;;;12.30;10.30;;;;;;;26.59;100.00;98664.68;109381;1253;66068;-73
2023/06/23 09:02:56;;;;;;;13.80;10.50;;;;;;;26.79;100.00;98667.29;109377;1253;59439;-73
2023/06/23 09:05:24;;;;;;;16.00;11.20;;;;;;;27.02;100.00;98672.09;109371;1253;63759;-73
2023/06/23 09:07:50;;;;;;;16.80;11.10;;;;;;;27.21;100.00;98682.41;109304;1253;58925;-74
2023/06/23 09:10:18;;;;;;;15.10;12.00;;;;;;;27.44;100.00;98695.77;109058;1253;59116;-74
2023/06/23 09:13:07;;;;;;;12.40;10.60;;;;;;;27.57;100.00;98702.27;109345;1253;64498;-72
2023/06/23 09:15:34;;;;;;;13.10;10.70;;;;;;;27.55;100.00;98703.84;109369;1253;60246;-72
2023/06/23 09:18:08;;;;;;;13.90;11.10;;;;;;;27.52;99.97;98702.98;109363;1253;62521;-72
2023/06/23 09:20:36;;;;;;;12.30;9.70;;;;;;;27.62;100.00;98703.16;109326;1253;59239;-73
2023/06/23 09:23:02;;;;;;;11.30;10.10;;;;;;;27.81;99.93;98704.91;109248;1253;59066;-73
2023/06/23 09:25:50;;;;;;;12.00;9.30;;;;;;;28.01;99.30;98699.92;109345;1253;65973;-74
2023/06/23 09:28:31;;;;;;;15.20;11.30;;;;;;;28.28;99.23;98697.30;109156;1253;59328;-73
2023/06/23 09:31:06;;;;;;;10.30;9.30;;;;;;;28.53;97.63;98693.31;109357;1253;70746;-73
2023/06/23 09:33:32;;;;;;;11.70;9.20;;;;;;;28.72;96.66;98685.85;109078;1253;59038;-73
2023/06/23 09:36:04;;;;;;;10.90;9.40;;;;;;;28.90;94.72;98689.16;109376;1256;58850;-72
2023/06/23 09:38:35;;;;;;;14.80;9.30;;;;;;;29.07;93.75;98695.56;109392;1253;66208;-73
2023/06/23 09:41:11;;;;;;;13.90;10.10;;;;;;;29.26;92.67;98695.66;109119;1253;59919;-73
2023/06/23 09:43:52;;;;;;;11.60;9.80;;;;;;;29.48;91.64;98692.79;109362;1253;63860;-75
2023/06/23 09:46:24;;;;;;;11.00;10.00;;;;;;;29.66;90.33;98693.84;109202;1253;58954;-73
2023/06/23 09:48:51;;;;;;;11.50;9.60;;;;;;;29.87;89.78;98690.98;109387;1253;58858;-73
2023/06/23 09:51:21;;;;;;;12.80;9.90;;;;;;;30.11;88.41;98688.79;109383;1253;66295;-73
2023/06/23 09:53:49;;;;;;;13.40;10.40;;;;;;;30.25;86.12;98685.35;109406;1253;59919;-73
2023/06/23 09:56:17;;;;;;;19.50;11.60;;;;;;;30.40;85.34;98683.04;109358;1253;63761;-73
2023/06/23 09:58:46;;;;;;;13.30;11.90;;;;;;;30.52;83.52;98683.59;109319;1253;58965;-73
2023/06/23 10:01:15;;;;;;;15.40;12.50;;;;;;;30.57;82.28;98686.23;109353;1253;58867;-73
2023/06/23 10:03:43;;;;;;;18.20;12.70;;;;;;;30.68;82.28;98693.52;109407;1253;66117;-71
2023/06/23 10:06:32;;;;;;;14.70;12.60;;;;;;;30.85;81.61;98701.65;109388;1253;59043;-75
2023/06/23 10:09:00;;;;;;;13.90;12.50;;;;;;;31.07;81.23;98707.17;109352;1253;62865;-74
2023/06/23 10:11:34;;;;;;;14.70;13.30;;;;;;;31.20;80.47;98707.85;109368;1253;59679;-74
2023/06/23 10:14:07;;;;;;;15.70;14.10;;;;;;;31.35;80.47;98699.29;109017;1253;58983;-74
2023/06/23 10:16:35;;;;;;;14.70;13.40;;;;;;;31.54;79.52;98695.91;109187;1253;75919;-75
2023/06/23 10:19:03;;;;;;;17.10;13.40;;;;;;;31.67;78.72;98697.60;109412;1253;59020;-75
2023/06/23 10:21:33;;;;;;;15.50;14.20;;;;;;;31.83;78.13;98697.33;109391;1253;64042;-75
2023/06/23 10:24:04;;;;;;;16.60;13.90;;;;;;;31.94;77.30;98695.36;109364;1254;59325;-74
2023/06/23 10:26:34;;;;;;;16.10;14.60;;;;;;;32.00;76.40;98697.83;109412;1253;59131;-74
2023/06/23 10:29:04;;;;;;;16.80;14.90;;;;;;;32.02;76.11;98696.60;109363;1253;64558;-74
2023/06/23 10:31:31;;;;;;;15.70;14.30;;;;;;;32.01;75.66;98698.58;109393;1253;58992;-74
2023/06/23 10:34:00;;;;;;;17.00;15.30;;;;;;;31.95;74.74;98698.19;109366;1253;63730;-75
2023/06/23 10:36:30;;;;;;;16.30;14.70;;;;;;;31.85;74.42;98697.11;109371;1253;58979;-75
2023/06/23 10:39:04;;;;;;;15.60;14.20;;;;;;;31.79;75.12;98695.46;109383;1253;59034;-73
2023/06/23 10:41:33;;;;;;;17.20;15.60;;;;;;;31.78;75.21;98694.82;109392;1253;66123;-74
2023/06/23 10:44:02;;;;;;;16.50;15.20;;;;;;;31.64;74.79;98690.77;109173;1253;60253;-73
2023/06/23 10:46:30;;;;;;;17.40;15.70;;;;;;;31.49;75.12;98691.96;109364;1253;64141;-74
2023/06/23 10:48:57;;;;;;;16.90;15.30;;;;;;;31.40;75.18;98686.51;109406;1253;58940;-74
2023/06/23 10:51:25;;;;;;;17.30;15.40;;;;;;;31.44;75.60;98686.09;109383;1253;59096;-74
2023/06/23 10:54:00;;;;;;;17.40;15.70;;;;;;;31.55;75.69;98688.78;109416;1253;65969;-75
2023/06/23 10:56:38;;;;;;;16.00;14.60;;;;;;;31.62;75.57;98690.29;109359;1253;60354;-74
2023/06/23 10:59:22;;;;;;;17.30;15.50;;;;;;;31.72;75.69;98692.36;109386;1253;63844;-74
2023/06/23 11:02:00;;;;;;;16.30;14.80;;;;;;;31.82;75.31;98692.81;109320;1253;58960;-75
2023/06/23 11:04:31;;;;;;;13.00;11.60;;;;;;;31.85;73.22;98693.13;109396;1253;58973;-74
2023/06/23 11:07:09;;;;;;;10.60;9.60;;;;;;;31.80;70.25;98697.19;109420;1253;66151;-75
2023/06/23 11:09:54;;;;;;;10.10;9.20;;;;;;;31.75;67.85;98696.77;109411;1253;59256;-74
2023/06/23 11:12:29;;;;;;;9.70;8.90;;;;;;;31.60;66.84;98697.56;109378;1253;63913;-75
2023/06/23 11:15:05;;;;;;;9.90;9.00;;;;;;;31.45;66.19;98701.11;109213;1253;59303;-73
2023/06/23 11:17:43;;;;;;;10.40;9.40;;;;;;;31.35;65.51;98704.67;109401;1253;58932;-74
2023/06/23 11:20:30;;;;;;;10.40;9.30;;;;;;;31.24;64.49;98704.33;109382;1253;64939;-75